Grootmis, South Africa
Current Conditions -  °F | °C
As of 6:00 PM on Friday 19 Dec 2014 (Local Time) from FAUP Reporting Station
Few Clouds Few Clouds  
Wind Chill: 97°   Ceiling: Unl
Heat Index: 97°   Visibility: 6mi
Dew Point: 21°   Wind: 13mph
Humidity: 7%   Direction: 210°SSW
Pressure: 29.85"   Gusts: NA
Location:  29.65°S, 17.08°E
Report Text: FAUP 191600Z 21011KT 9999 FEW050 36/M06 Q1011 NOSIG
Loading
Personal Weather Stations






























Interactive Weather Map New forecast layout! Learn more

10-Day Weather Forecast

Advertisements
Track Severe Weather on mobile